Weather History for KFAM - April, 2013

Change the Weather History Date:

Monday, April 8, 2013

  Actual Average Record
Temperature  
Mean Temperature 66 °F -  
Max Temperature 73 °F 63 °F 84 °F (2001)
Min Temperature 59 °F 42 °F 23 °F (2007)
Cooling Degree Days 1    
Growing Degree Days 16 (Base 50)    
Moisture  
Dew Point 54 °F    
Average Humidity 66    
Maximum Humidity 77    
Minimum Humidity 53    
Precipitation  
Precipitation 0.00 in - - ()
Sea Level Pressure  
Sea Level Pressure 29.86 in    
Wind  
Wind Speed 13 mph (South)    
Max Wind Speed 18 mph    
Max Gust Speed 26 mph    
Visibility 10 miles    
Events      
Averages and records for this station are not official NWS values.
T = Trace of Precipitation, MM = Missing Value Source: NWS Daily Summary

Daily Weather History Graph

Daily Weather History Graph

Search for Another Location

Airport or City:

Trip Planner

Search our weather history database for the weather conditions in past years. The results will help you decide how hot, cold, wet, or windy it might be!

Date:

Astronomy

Apr. 08, 2013 Rise Set
Actual Time 6:36 AM CDT 7:31 PM CDT
Civil Twilight 6:09 AM CDT 7:58 PM CDT
Nautical Twilight 5:37 AM CDT 8:29 PM CDT
Astronomical Twilight 5:05 AM CDT 9:02 PM CDT
Moon 5:24 AM CDT (4/8) 6:06 PM CDT (4/8)
Length of Visible Light 13h 48m
Length of Day
12h 55m
Waning Crescent, 3% of the Moon is Illuminated
Apr 8
Waning Crescent
Apr 10
New
Apr 18
First Quarter
Apr 25
Full
May 2
Last Quarter

Hourly Weather History & Observations

Time (CDT) Temp. Dew Point Humidity Pressure Visibility Wind Dir Wind Speed Gust Speed Precip Events Conditions
12:15 AM 62.6 °F 51.8 °F 68% 29.89 in 10.0 mi South 15.0 mph 19.6 mph N/A   Mostly Cloudy
12:35 AM 60.8 °F 51.8 °F 72% 29.89 in 10.0 mi South 12.7 mph - N/A   Clear
12:55 AM 60.8 °F 51.8 °F 72% 29.90 in 10.0 mi South 10.4 mph - N/A   Partly Cloudy
1:15 AM 60.8 °F 51.8 °F 72% 29.89 in 10.0 mi South 12.7 mph - N/A   Partly Cloudy
1:35 AM 60.8 °F 51.8 °F 72% 29.87 in 10.0 mi South 12.7 mph 20.7 mph N/A   Partly Cloudy
1:55 AM 60.8 °F 51.8 °F 72% 29.85 in 10.0 mi South 12.7 mph - N/A   Clear
2:15 AM 60.8 °F 51.8 °F 72% 29.85 in 10.0 mi South 11.5 mph - N/A   Clear
2:35 AM 59.0 °F 51.8 °F 77% 29.84 in 10.0 mi South 10.4 mph - N/A   Partly Cloudy
2:55 AM 60.8 °F 51.8 °F 72% 29.84 in 10.0 mi South 10.4 mph - N/A   Mostly Cloudy
3:15 AM 60.8 °F 51.8 °F 72% 29.83 in 10.0 mi South 10.4 mph - N/A   Overcast
3:35 AM 60.8 °F 51.8 °F 72% 29.83 in 10.0 mi South 12.7 mph 19.6 mph N/A   Overcast
3:55 AM 60.8 °F 51.8 °F 72% 29.82 in 10.0 mi South 12.7 mph - N/A   Overcast
4:15 AM 60.8 °F 51.8 °F 72% 29.81 in 10.0 mi South 11.5 mph - N/A   Overcast
4:35 AM 60.8 °F 50.0 °F 68% 29.82 in 10.0 mi South 10.4 mph - N/A   Overcast
4:55 AM 60.8 °F 50.0 °F 68% 29.83 in 10.0 mi South 9.2 mph - N/A   Mostly Cloudy
5:15 AM 60.8 °F 50.0 °F 68% 29.83 in 10.0 mi South 11.5 mph - N/A   Scattered Clouds
5:35 AM 59.0 °F 50.0 °F 72% 29.82 in 10.0 mi South 10.4 mph - N/A   Clear
5:55 AM 59.0 °F 50.0 °F 72% 29.82 in 10.0 mi South 11.5 mph - N/A   Clear
6:15 AM 59.0 °F 50.0 °F 72% 29.82 in 10.0 mi South 11.5 mph - N/A   Clear
6:35 AM 59.0 °F 50.0 °F 72% 29.82 in 10.0 mi South 13.8 mph - N/A   Clear
6:55 AM 59.0 °F 51.8 °F 77% 29.83 in 10.0 mi South 13.8 mph - N/A   Clear
7:15 AM 60.8 °F 51.8 °F 72% 29.83 in 10.0 mi South 12.7 mph - N/A   Clear
7:35 AM 60.8 °F 51.8 °F 72% 29.84 in 10.0 mi South 16.1 mph 19.6 mph N/A   Clear
7:55 AM 60.8 °F 51.8 °F 72% 29.84 in 10.0 mi South 13.8 mph - N/A   Clear
8:15 AM 60.8 °F 51.8 °F 72% 29.84 in 10.0 mi South 16.1 mph 23.0 mph N/A   Clear
8:35 AM 60.8 °F 51.8 °F 72% 29.85 in 10.0 mi South 12.7 mph - N/A   Clear
8:55 AM 62.6 °F 53.6 °F 72% 29.85 in 10.0 mi South 15.0 mph 21.9 mph N/A   Clear
9:15 AM 62.6 °F 53.6 °F 72% 29.86 in 10.0 mi SSW 12.7 mph 17.3 mph N/A   Clear
9:35 AM 62.6 °F 53.6 °F 72% 29.86 in 10.0 mi SSW 16.1 mph - N/A   Clear
9:55 AM 62.6 °F 53.6 °F 72% 29.85 in 10.0 mi SSW 9.2 mph - N/A   Clear
10:15 AM 62.6 °F 53.6 °F 72% 29.84 in 10.0 mi ESE 3.5 mph - N/A   Clear
10:35 AM 64.4 °F 55.4 °F 73% 29.85 in 10.0 mi SSW 5.8 mph - N/A   Mostly Cloudy
10:55 AM 66.2 °F 55.4 °F 68% 29.85 in 10.0 mi SSE 10.4 mph - N/A   Scattered Clouds
11:15 AM 69.8 °F 55.4 °F 60% 29.86 in 10.0 mi SSE 15.0 mph - N/A   Clear
11:35 AM 69.8 °F 55.4 °F 60% 29.86 in 10.0 mi SSE 13.8 mph 19.6 mph N/A   Clear
11:55 AM 69.8 °F 55.4 °F 60% 29.87 in 10.0 mi South 17.3 mph 23.0 mph N/A   Clear
12:15 PM 69.8 °F 55.4 °F 60% 29.89 in 10.0 mi SSW 17.3 mph 25.3 mph N/A   Mostly Cloudy
12:35 PM 69.8 °F 55.4 °F 60% 29.88 in 8.0 mi SSW 17.3 mph 23.0 mph N/A   Scattered Clouds
12:55 PM 68.0 °F 55.4 °F 64% 29.89 in 10.0 mi SSW 17.3 mph 23.0 mph N/A   Mostly Cloudy
1:15 PM 68.0 °F 55.4 °F 64% 29.89 in 10.0 mi SSW 16.1 mph 20.7 mph N/A   Overcast
1:35 PM 68.0 °F 55.4 °F 64% 29.88 in 10.0 mi South 16.1 mph 26.5 mph N/A   Overcast
1:55 PM 69.8 °F 55.4 °F 60% 29.87 in 10.0 mi South 17.3 mph 20.7 mph N/A   Scattered Clouds
2:15 PM 69.8 °F 57.2 °F 64% 29.87 in 10.0 mi SSW 13.8 mph 20.7 mph N/A   Scattered Clouds
2:35 PM 71.6 °F 57.2 °F 60% 29.87 in 10.0 mi South 18.4 mph 21.9 mph N/A   Scattered Clouds
2:55 PM 71.6 °F 57.2 °F 60% 29.86 in 10.0 mi South 11.5 mph 20.7 mph N/A   Scattered Clouds
3:15 PM 73.4 °F 57.2 °F 57% 29.85 in 10.0 mi South 15.0 mph 20.7 mph N/A   Scattered Clouds
3:35 PM 73.4 °F 55.4 °F 53% 29.85 in 10.0 mi South 13.8 mph 23.0 mph N/A   Partly Cloudy
3:55 PM 73.4 °F 55.4 °F 53% 29.85 in 10.0 mi SSW 16.1 mph 25.3 mph N/A   Partly Cloudy
4:15 PM 73.4 °F 55.4 °F 53% 29.85 in 10.0 mi South 15.0 mph 20.7 mph N/A   Mostly Cloudy
4:35 PM 73.4 °F 55.4 °F 53% 29.85 in 10.0 mi SSE 11.5 mph - N/A   Mostly Cloudy
4:55 PM 71.6 °F 55.4 °F 57% 29.85 in 10.0 mi South 10.4 mph - N/A   Mostly Cloudy
5:15 PM 71.6 °F 55.4 °F 57% 29.83 in 10.0 mi SE 15.0 mph - N/A   Mostly Cloudy
5:35 PM 73.4 °F 55.4 °F 53% 29.84 in 10.0 mi SSE 15.0 mph - N/A   Mostly Cloudy
5:55 PM 71.6 °F 55.4 °F 57% 29.84 in 10.0 mi South 12.7 mph 20.7 mph N/A   Mostly Cloudy
6:15 PM 71.6 °F 55.4 °F 57% 29.84 in 10.0 mi SSE 13.8 mph 20.7 mph N/A   Mostly Cloudy
6:35 PM 71.6 °F 55.4 °F 57% 29.84 in 10.0 mi South 10.4 mph 17.3 mph N/A   Mostly Cloudy
6:55 PM 71.6 °F 53.6 °F 53% 29.85 in 10.0 mi SSE 10.4 mph 19.6 mph N/A   Overcast
7:15 PM 69.8 °F 55.4 °F 60% 29.85 in 10.0 mi South 13.8 mph 21.9 mph N/A   Mostly Cloudy
7:35 PM 69.8 °F 55.4 °F 60% 29.86 in 10.0 mi South 12.7 mph 18.4 mph N/A   Mostly Cloudy
7:55 PM 68.0 °F 55.4 °F 64% 29.87 in 10.0 mi South 18.4 mph 23.0 mph N/A   Overcast
8:15 PM 68.0 °F 55.4 °F 64% 29.88 in 10.0 mi South 12.7 mph 24.2 mph N/A   Overcast
8:35 PM 66.2 °F 55.4 °F 68% 29.89 in 10.0 mi South 15.0 mph - N/A   Overcast
8:55 PM 66.2 °F 55.4 °F 68% 29.90 in 10.0 mi South 11.5 mph 16.1 mph N/A   Overcast
9:15 PM 66.2 °F 55.4 °F 68% 29.91 in 10.0 mi South 11.5 mph - N/A   Overcast
9:35 PM 66.2 °F 55.4 °F 68% 29.91 in 10.0 mi South 9.2 mph - N/A   Overcast
9:55 PM 66.2 °F 55.4 °F 68% 29.91 in 10.0 mi South 8.1 mph - N/A   Overcast
10:15 PM 66.2 °F 55.4 °F 68% 29.91 in 10.0 mi South 5.8 mph - N/A   Overcast
10:35 PM 66.2 °F 55.4 °F 68% 29.91 in 10.0 mi SSE 4.6 mph - N/A   Overcast
10:55 PM 66.2 °F 55.4 °F 68% 29.91 in 10.0 mi South 4.6 mph - N/A   Overcast
11:15 PM 64.4 °F 55.4 °F 73% 29.91 in 10.0 mi South 4.6 mph - N/A   Overcast
11:35 PM 64.4 °F 55.4 °F 73% 29.91 in 10.0 mi South 3.5 mph - N/A   Overcast
11:55 PM 64.4 °F 55.4 °F 73% 29.91 in 10.0 mi SSE 4.6 mph - N/A   Overcast